Time;durP1;ratioP1;P1;durP2;ratioP2;P2;SDS_P1;SDS_P2;PMS_P1;PMS_P2;Temp;Humidity;BMP_temperature;BMP_pressure;BME280_temperature;BME280_humidity;BME280_pressure;Samples;Min_cycle;Max_cycle;Signal;HPM_P1;HPM_P2
2022/10/01 00:00:46;;;;;;;16.58;10.73;;;10.80;99.90;;;;;;5062197;28;20060;-59
2022/10/01 00:03:12;;;;;;;12.18;9.60;;;10.70;99.90;;;;;;5060979;28;20128;-61
2022/10/01 00:05:38;;;;;;;12.68;10.48;;;10.80;99.90;;;;;;5061392;28;20048;-61
2022/10/01 00:08:03;;;;;;;14.30;10.98;;;10.80;99.90;;;;;;5061296;28;20049;-60
2022/10/01 00:10:30;;;;;;;14.60;11.05;;;10.80;99.90;;;;;;5060617;28;20048;-61
2022/10/01 00:12:57;;;;;;;18.25;12.60;;;10.90;99.90;;;;;;5061736;28;20090;-60
2022/10/01 00:15:25;;;;;;;14.05;11.73;;;10.70;99.90;;;;;;5060635;28;20049;-61
2022/10/01 00:17:52;;;;;;;17.55;11.85;;;10.60;99.90;;;;;;5061453;28;20051;-61
2022/10/01 00:20:18;;;;;;;17.05;12.90;;;10.70;99.90;;;;;;5060669;28;20056;-60
2022/10/01 00:22:45;;;;;;;19.48;14.02;;;10.70;99.90;;;;;;5061060;28;20049;-60
2022/10/01 00:25:11;;;;;;;17.83;12.95;;;10.60;99.90;;;;;;5059916;28;20048;-60
2022/10/01 00:27:36;;;;;;;17.95;14.60;;;10.60;99.90;;;;;;5060237;28;20049;-61
2022/10/01 00:30:04;;;;;;;18.67;14.65;;;10.60;99.90;;;;;;5061283;28;20060;-61
2022/10/01 00:32:31;;;;;;;18.90;13.48;;;10.60;99.90;;;;;;5060451;28;20077;-60
2022/10/01 00:35:01;;;;;;;16.60;13.10;;;10.60;99.90;;;;;;5060964;28;20097;-60
2022/10/01 00:37:27;;;;;;;18.38;13.88;;;10.80;99.90;;;;;;5060444;28;20366;-60
2022/10/01 00:39:52;;;;;;;18.70;14.40;;;10.70;99.90;;;;;;5065678;28;20059;-61
2022/10/01 00:42:25;;;;;;;18.75;14.20;;;10.60;99.90;;;;;;5080722;28;20331;-61
2022/10/01 00:44:52;;;;;;;17.38;13.98;;;10.70;99.90;;;;;;5079869;28;20434;-61
2022/10/01 00:47:25;;;;;;;17.23;14.20;;;10.80;99.90;;;;;;5081046;28;20036;-59
2022/10/01 00:49:55;;;;;;;17.90;14.95;;;10.70;99.90;;;;;;5079797;28;20051;-61
2022/10/01 00:52:28;;;;;;;18.08;14.50;;;10.60;99.90;;;;;;5080675;28;20032;-61
2022/10/01 00:54:58;;;;;;;;;;;10.80;99.90;;;;;;5080774;28;20071;-60
2022/10/01 00:57:26;;;;;;;19.75;14.38;;;10.50;99.90;;;;;;5079998;28;20471;-62
2022/10/01 00:59:55;;;;;;;19.38;15.25;;;10.80;99.90;;;;;;5068632;28;20057;-62
2022/10/01 01:02:21;;;;;;;17.70;14.48;;;10.80;99.90;;;;;;5059189;28;20248;-62
2022/10/01 01:04:48;;;;;;;18.83;14.80;;;10.50;99.90;;;;;;5060564;28;20096;-60
2022/10/01 01:07:14;;;;;;;19.65;14.75;;;10.70;99.90;;;;;;5059715;28;20041;-61
2022/10/01 01:09:44;;;;;;;18.17;14.55;;;10.50;99.90;;;;;;5060301;28;20428;-61
2022/10/01 01:12:39;;;;;;;18.67;15.05;;;10.70;99.90;;;;;;5059925;28;20033;-61
2022/10/01 01:15:36;;;;;;;17.70;13.93;;;10.60;99.90;;;;;;5059419;28;20045;-61
2022/10/01 01:18:42;;;;;;;17.08;13.98;;;10.50;99.90;;;;;;5060195;28;20056;-61
2022/10/01 01:21:15;;;;;;;20.25;15.30;;;10.50;99.90;;;;;;5037568;28;20083;-61
2022/10/01 01:24:19;;;;;;;18.17;14.00;;;10.70;99.90;;;;;;5056258;28;20053;-62
2022/10/01 01:27:01;;;;;;;17.95;13.82;;;10.70;99.90;;;;;;5059942;28;20044;-62
2022/10/01 01:29:36;;;;;;;19.73;15.32;;;10.70;99.90;;;;;;5059694;28;20129;-63
2022/10/01 01:32:11;;;;;;;20.65;14.75;;;10.70;99.90;;;;;;5059108;28;20025;-61
2022/10/01 01:34:42;;;;;;;18.88;13.57;;;10.60;99.90;;;;;;5059899;28;20120;-62
2022/10/01 01:37:13;;;;;;;18.00;13.07;;;10.50;99.90;;;;;;5057614;28;20048;-61
2022/10/01 01:39:45;;;;;;;18.63;13.38;;;10.60;99.90;;;;;;5062311;28;20261;-63
2022/10/01 01:42:31;;;;;;;17.23;14.43;;;10.50;99.90;;;;;;5079348;28;20046;-63
2022/10/01 01:45:00;;;;;;;21.13;14.48;;;10.60;99.90;;;;;;5077525;28;20041;-63
2022/10/01 01:47:29;;;;;;;18.10;13.48;;;10.60;99.90;;;;;;5079890;28;20040;-63
2022/10/01 01:49:57;;;;;;;20.90;16.00;;;10.50;99.90;;;;;;5078586;28;20060;-63
2022/10/01 01:52:23;;;;;;;18.77;13.20;;;10.40;99.90;;;;;;5079998;28;20052;-63
2022/10/01 01:54:50;;;;;;;18.02;14.40;;;10.40;99.90;;;;;;5079337;28;20033;-63
2022/10/01 01:57:18;;;;;;;20.38;13.65;;;10.40;99.90;;;;;;5079095;28;20052;-63
2022/10/01 01:59:44;;;;;;;19.25;14.73;;;10.60;99.90;;;;;;5068635;28;20055;-63
2022/10/01 02:02:26;;;;;;;16.10;13.07;;;10.60;99.90;;;;;;5058263;28;20068;-64
2022/10/01 02:05:02;;;;;;;20.50;14.25;;;10.40;99.90;;;;;;5059524;28;20499;-64
2022/10/01 02:07:36;;;;;;;18.40;13.05;;;10.70;99.90;;;;;;5057174;28;20052;-64
2022/10/01 02:10:28;;;;;;;16.45;12.70;;;10.50;99.90;;;;;;5058788;28;20080;-64
2022/10/01 02:13:21;;;;;;;15.07;11.50;;;10.40;99.90;;;;;;5057466;28;20105;-63
2022/10/01 02:15:49;;;;;;;14.68;11.55;;;10.60;99.90;;;;;;5057389;28;20056;-62
2022/10/01 02:18:37;;;;;;;17.38;12.20;;;10.50;99.90;;;;;;5059469;28;20086;-62
2022/10/01 02:21:10;;;;;;;13.32;10.55;;;10.60;99.90;;;;;;5059189;28;20533;-62
2022/10/01 02:24:04;;;;;;;16.15;11.95;;;10.70;99.90;;;;;;5056681;28;20048;-63
2022/10/01 02:26:31;;;;;;;15.32;11.75;;;10.50;99.90;;;;;;5055729;28;20060;-64
2022/10/01 02:29:01;;;;;;;14.35;10.48;;;10.30;99.90;;;;;;5058650;28;20045;-63
2022/10/01 02:31:29;;;;;;;17.05;11.80;;;10.40;99.90;;;;;;5058795;28;20619;-64
2022/10/01 02:33:57;;;;;;;14.77;11.20;;;10.60;99.90;;;;;;5058963;28;20037;-63
2022/10/01 02:36:24;;;;;;;14.80;10.60;;;10.70;99.90;;;;;;5058198;28;20115;-63
2022/10/01 02:38:52;;;;;;;15.75;10.85;;;10.50;99.90;;;;;;5059239;28;20111;-61
2022/10/01 02:41:27;;;;;;;14.82;10.05;;;10.70;99.90;;;;;;5075265;28;20102;-60
2022/10/01 02:43:59;;;;;;;13.18;9.48;;;10.30;99.90;;;;;;5079053;28;20045;-60
2022/10/01 02:46:53;;;;;;;12.73;9.23;;;10.40;99.90;;;;;;5078728;28;20094;-60
2022/10/01 02:49:19;;;;;;;11.90;8.10;;;10.60;99.90;;;;;;5072363;28;20052;-60
2022/10/01 02:52:28;;;;;;;14.38;9.02;;;10.40;99.90;;;;;;5079147;28;20037;-60
2022/10/01 02:55:04;;;;;;;12.43;9.45;;;10.70;99.90;;;;;;5072718;28;20037;-60
2022/10/01 02:57:31;;;;;;;10.85;7.85;;;10.70;99.90;;;;;;5078219;28;20051;-60
2022/10/01 03:00:05;;;;;;;12.30;8.60;;;10.50;99.90;;;;;;5066222;28;20053;-60
2022/10/01 03:02:31;;;;;;;12.05;9.15;;;10.60;99.90;;;;;;5058004;28;20045;-59
2022/10/01 03:04:58;;;;;;;12.90;8.95;;;10.70;99.90;;;;;;5058735;28;20057;-59
2022/10/01 03:07:29;;;;;;;11.95;8.90;;;10.80;99.90;;;;;;5058095;28;20049;-59
2022/10/01 03:09:55;;;;;;;12.45;8.60;;;10.80;99.90;;;;;;5058365;28;20053;-59
2022/10/01 03:12:22;;;;;;;11.73;8.80;;;10.60;99.90;;;;;;5058775;28;20075;-59
2022/10/01 03:14:48;;;;;;;12.45;8.85;;;10.60;99.90;;;;;;5056476;28;20045;-59
2022/10/01 03:17:14;;;;;;;11.45;8.23;;;10.90;99.90;;;;;;5058672;28;20282;-59
2022/10/01 03:19:41;;;;;;;12.38;8.60;;;10.60;99.90;;;;;;5057878;28;20041;-60
2022/10/01 03:22:08;;;;;;;12.95;8.30;;;10.80;99.90;;;;;;5058965;28;20045;-59
2022/10/01 03:24:33;;;;;;;13.10;8.13;;;10.50;99.90;;;;;;5059071;28;20060;-59
2022/10/01 03:26:59;;;;;;;12.68;8.63;;;10.90;99.90;;;;;;5060925;28;20051;-59
2022/10/01 03:29:25;;;;;;;10.95;7.40;;;10.90;99.90;;;;;;5062287;28;20108;-59
2022/10/01 03:31:52;;;;;;;12.25;7.72;;;10.70;99.90;;;;;;5060020;28;20569;-59
2022/10/01 03:34:18;;;;;;;10.00;6.43;;;10.60;99.90;;;;;;5062187;28;20079;-59
2022/10/01 03:36:43;;;;;;;10.05;6.30;;;10.80;99.90;;;;;;5061452;28;20144;-59
2022/10/01 03:39:09;;;;;;;11.02;6.55;;;11.00;99.90;;;;;;5061825;28;20524;-59
2022/10/01 03:41:36;;;;;;;8.52;5.80;;;11.10;99.90;;;;;;5080773;28;20464;-59
2022/10/01 03:44:02;;;;;;;8.95;5.50;;;10.70;99.90;;;;;;5082025;28;20053;-59
2022/10/01 03:46:29;;;;;;;8.23;5.80;;;11.00;99.90;;;;;;5081827;28;20092;-58
2022/10/01 03:48:56;;;;;;;8.15;5.03;;;11.00;99.90;;;;;;5081026;28;20104;-59
2022/10/01 03:51:22;;;;;;;8.07;5.30;;;11.10;99.90;;;;;;5081950;28;20558;-58
2022/10/01 03:53:48;;;;;;;8.13;4.95;;;11.10;99.90;;;;;;5081112;28;20338;-59
2022/10/01 03:56:14;;;;;;;7.35;4.28;;;11.00;99.90;;;;;;5081810;28;20045;-59
2022/10/01 03:58:40;;;;;;;7.15;4.60;;;11.10;99.90;;;;;;5060668;28;20044;-59
2022/10/01 04:01:06;;;;;;;7.55;4.85;;;10.70;99.90;;;;;;5061435;28;20403;-60
2022/10/01 04:03:32;;;;;;;7.50;4.68;;;11.10;99.90;;;;;;5061144;28;20098;-59
2022/10/01 04:05:57;;;;;;;8.30;5.38;;;10.80;99.90;;;;;;5060941;28;20571;-60
2022/10/01 04:08:23;;;;;;;7.35;4.07;;;10.80;99.90;;;;;;5061623;28;20073;-59
2022/10/01 04:10:49;;;;;;;6.60;4.07;;;10.90;99.90;;;;;;5060608;28;20083;-60
2022/10/01 04:13:16;;;;;;;8.20;4.50;;;11.10;99.90;;;;;;5061562;28;20037;-59
2022/10/01 04:15:41;;;;;;;6.93;4.13;;;11.00;99.90;;;;;;5060779;28;20048;-59
2022/10/01 04:18:07;;;;;;;7.72;4.40;;;11.10;99.90;;;;;;5061436;28;21031;-60
2022/10/01 04:20:35;;;;;;;7.45;4.50;;;10.80;99.90;;;;;;5061077;28;20045;-60
2022/10/01 04:23:01;;;;;;;7.22;4.70;;;10.90;99.90;;;;;;5060523;28;20103;-59
2022/10/01 04:25:27;;;;;;;8.25;4.15;;;11.10;99.90;;;;;;5061286;28;20037;-60
2022/10/01 04:28:04;;;;;;;7.28;4.53;;;11.30;99.90;;;;;;5058995;28;20219;-61
2022/10/01 04:30:33;;;;;;;7.57;4.20;;;10.90;99.90;;;;;;5060985;28;20065;-60
2022/10/01 04:32:58;;;;;;;6.47;4.00;;;11.30;99.90;;;;;;5060350;28;20587;-59
2022/10/01 04:35:25;;;;;;;6.55;4.03;;;11.30;99.90;;;;;;5059141;28;20084;-60
2022/10/01 04:38:02;;;;;;;7.07;4.40;;;11.00;99.90;;;;;;5060766;28;20459;-59
2022/10/01 04:40:33;;;;;;;7.13;4.20;;;11.30;99.90;;;;;;5068372;28;20036;-59
2022/10/01 04:43:03;;;;;;;7.65;4.30;;;11.00;99.90;;;;;;5080987;28;20070;-59
2022/10/01 04:45:28;;;;;;;8.10;4.90;;;11.30;99.90;;;;;;5080126;28;20041;-59
2022/10/01 04:47:55;;;;;;;8.32;4.57;;;11.30;99.90;;;;;;5080777;28;20045;-59
2022/10/01 04:50:23;;;;;;;6.90;4.53;;;11.30;99.90;;;;;;5080275;28;20547;-58
2022/10/01 04:52:49;;;;;;;7.07;4.78;;;11.30;99.90;;;;;;5080591;28;20072;-59
2022/10/01 04:55:16;;;;;;;7.28;4.63;;;11.40;99.90;;;;;;5079441;28;20189;-58
2022/10/01 04:57:42;;;;;;;7.95;5.07;;;11.10;99.90;;;;;;5079503;28;20488;-59
2022/10/01 05:00:12;;;;;;;8.10;5.60;;;11.10;99.90;;;;;;5066350;28;20068;-58
2022/10/01 05:02:38;;;;;;;9.82;5.53;;;11.20;99.90;;;;;;5059792;28;20067;-58
2022/10/01 05:05:06;;;;;;;7.60;5.15;;;11.40;99.90;;;;;;5060622;28;20543;-59
2022/10/01 05:07:33;;;;;;;9.65;6.05;;;11.40;99.90;;;;;;5059803;28;20071;-59
2022/10/01 05:09:59;;;;;;;8.27;6.00;;;11.30;99.90;;;;;;5059688;28;20056;-59
2022/10/01 05:12:29;;;;;;;9.02;5.90;;;11.30;99.90;;;;;;5060271;28;20068;-58
2022/10/01 05:14:55;;;;;;;8.80;5.85;;;11.30;99.90;;;;;;5059391;28;20045;-59
2022/10/01 05:17:21;;;;;;;8.63;5.97;;;11.50;99.90;;;;;;5060488;28;20041;-59
2022/10/01 05:19:48;;;;;;;7.80;5.60;;;11.50;99.90;;;;;;5059741;28;20076;-58
2022/10/01 05:22:14;;;;;;;9.88;6.50;;;11.70;99.90;;;;;;5060063;28;20037;-59
2022/10/01 05:24:42;;;;;;;8.93;6.40;;;11.20;99.90;;;;;;5059732;28;20075;-59
2022/10/01 05:27:10;;;;;;;9.70;6.60;;;11.50;99.90;;;;;;5058256;28;20081;-58
2022/10/01 05:29:37;;;;;;;9.48;6.22;;;11.20;99.90;;;;;;5058999;28;20044;-58
2022/10/01 05:32:03;;;;;;;9.57;6.63;;;11.40;99.90;;;;;;5059235;28;20488;-59
2022/10/01 05:34:29;;;;;;;9.05;6.72;;;11.60;99.90;;;;;;5058593;28;20551;-59
2022/10/01 05:36:54;;;;;;;10.00;6.78;;;11.70;99.90;;;;;;5061135;28;20147;-58
2022/10/01 05:39:20;;;;;;;10.65;6.90;;;11.60;99.90;;;;;;5079356;28;20052;-58
2022/10/01 05:41:46;;;;;;;10.95;7.22;;;11.30;99.90;;;;;;5078901;28;20044;-58
2022/10/01 05:44:11;;;;;;;11.05;7.45;;;11.70;99.90;;;;;;5079245;28;20049;-59
2022/10/01 05:46:37;;;;;;;10.93;7.63;;;11.60;99.90;;;;;;5079524;28;20044;-58
2022/10/01 05:49:03;;;;;;;12.05;7.68;;;11.30;99.90;;;;;;5078286;28;20047;-59
2022/10/01 05:51:29;;;;;;;11.07;8.75;;;11.40;99.90;;;;;;5079645;28;20514;-59
2022/10/01 05:53:57;;;;;;;11.25;8.05;;;11.70;99.90;;;;;;5078591;28;20040;-59
2022/10/01 05:56:24;;;;;;;11.60;8.18;;;11.40;99.90;;;;;;5078273;28;20158;-60
2022/10/01 05:58:49;;;;;;;10.50;8.38;;;11.40;99.90;;;;;;5075498;28;20025;-59
2022/10/01 06:01:15;;;;;;;11.48;8.32;;;11.30;99.90;;;;;;5059049;28;20067;-59
2022/10/01 06:03:41;;;;;;;16.92;10.25;;;11.50;99.90;;;;;;5059586;28;20053;-59
2022/10/01 06:06:07;;;;;;;12.98;9.23;;;11.50;99.90;;;;;;5055190;28;20037;-59
2022/10/01 06:08:34;;;;;;;13.27;10.18;;;11.30;99.90;;;;;;5055816;28;20063;-60
2022/10/01 06:11:01;;;;;;;12.57;8.98;;;11.60;99.90;;;;;;5054714;28;20264;-61
2022/10/01 06:13:28;;;;;;;13.43;9.38;;;11.80;99.90;;;;;;5055393;28;20072;-61
2022/10/01 06:15:53;;;;;;;13.95;9.20;;;11.60;99.90;;;;;;5054938;28;20060;-60
2022/10/01 06:18:19;;;;;;;14.45;9.25;;;11.60;99.90;;;;;;5054871;28;20053;-59
2022/10/01 06:20:45;;;;;;;17.20;9.48;;;12.00;99.90;;;;;;5055266;28;20127;-59
2022/10/01 06:23:13;;;;;;;14.55;9.57;;;11.90;99.90;;;;;;5054365;28;20250;-60
2022/10/01 06:25:41;;;;;;;14.18;9.43;;;11.60;99.90;;;;;;5055584;28;20091;-59
2022/10/01 06:28:08;;;;;;;14.05;9.60;;;11.70;99.90;;;;;;5054407;28;20485;-60
2022/10/01 06:30:37;;;;;;;15.75;10.45;;;11.70;99.90;;;;;;5055215;28;20045;-59
2022/10/01 06:33:07;;;;;;;13.88;10.07;;;11.60;99.90;;;;;;5054771;28;20044;-60
2022/10/01 06:35:34;;;;;;;19.02;10.23;;;11.80;99.90;;;;;;5054745;28;20087;-59
2022/10/01 06:38:01;;;;;;;17.27;11.02;;;11.80;99.90;;;;;;5054056;28;20603;-59
2022/10/01 06:40:30;;;;;;;15.38;10.02;;;12.00;99.90;;;;;;5063952;28;20025;-59
2022/10/01 06:42:59;;;;;;;14.18;9.93;;;11.80;99.90;;;;;;5075114;28;20137;-60
2022/10/01 06:45:29;;;;;;;13.48;9.98;;;12.10;99.90;;;;;;5074373;28;20036;-60
2022/10/01 06:47:57;;;;;;;15.68;10.15;;;11.70;99.90;;;;;;5075204;28;20052;-59
2022/10/01 06:50:24;;;;;;;18.65;11.23;;;11.90;99.90;;;;;;5074802;28;20044;-59
2022/10/01 06:52:51;;;;;;;22.95;10.73;;;12.40;99.90;;;;;;5074791;28;20697;-60
2022/10/01 06:55:19;;;;;;;21.40;11.27;;;12.30;99.90;;;;;;5074856;28;20040;-59
2022/10/01 06:57:44;;;;;;;20.67;12.00;;;12.50;99.90;;;;;;5074364;28;20262;-59
2022/10/01 07:00:11;;;;;;;19.38;11.00;;;12.40;99.90;;;;;;5063736;28;20579;-59
2022/10/01 07:02:38;;;;;;;19.00;11.43;;;12.20;99.90;;;;;;5057889;28;20053;-59
2022/10/01 07:05:05;;;;;;;22.05;10.27;;;12.80;99.90;;;;;;5063022;28;20045;-59
2022/10/01 07:07:32;;;;;;;19.45;9.93;;;12.30;99.90;;;;;;5070831;28;20049;-58
2022/10/01 07:09:58;;;;;;;19.17;9.70;;;12.90;99.90;;;;;;5072317;28;20158;-59
2022/10/01 07:12:24;;;;;;;18.40;9.48;;;12.90;99.90;;;;;;5078373;28;20185;-58
2022/10/01 07:14:50;;;;;;;19.48;9.75;;;13.00;99.90;;;;;;5077209;28;20104;-59
2022/10/01 07:17:16;;;;;;;22.52;10.00;;;12.80;99.90;;;;;;5077062;28;20068;-59
2022/10/01 07:19:41;;;;;;;18.15;9.43;;;13.10;99.90;;;;;;5078091;28;20592;-58
2022/10/01 07:22:07;;;;;;;22.33;9.00;;;12.60;99.90;;;;;;5078523;28;20094;-59
2022/10/01 07:24:33;;;;;;;25.25;8.60;;;13.10;99.90;;;;;;5078058;28;20052;-58
2022/10/01 07:26:59;;;;;;;19.85;8.77;;;13.10;99.90;;;;;;5077421;28;20033;-59
2022/10/01 07:29:24;;;;;;;14.32;7.75;;;12.80;99.90;;;;;;5076602;28;20044;-58
2022/10/01 07:31:58;;;;;;;15.02;7.30;;;12.70;99.90;;;;;;5077587;28;20051;-59
2022/10/01 07:34:29;;;;;;;16.50;6.82;;;12.90;99.90;;;;;;5078428;28;20112;-58
2022/10/01 07:36:55;;;;;;;18.97;6.60;;;12.90;99.90;;;;;;5069060;28;20033;-58
2022/10/01 07:39:22;;;;;;;24.83;7.07;;;13.20;99.90;;;;;;5065089;28;20067;-58
2022/10/01 07:41:49;;;;;;;18.15;6.60;;;13.10;99.90;;;;;;5081627;28;20426;-58
2022/10/01 07:44:15;;;;;;;21.63;6.40;;;12.80;99.90;;;;;;5081072;28;20049;-58
2022/10/01 07:46:40;;;;;;;18.38;6.07;;;12.80;99.90;;;;;;5081819;28;20037;-57
2022/10/01 07:49:08;;;;;;;14.90;6.18;;;13.30;99.90;;;;;;5077602;28;20111;-58
2022/10/01 07:51:34;;;;;;;17.20;5.30;;;13.30;99.90;;;;;;5070485;28;20051;-58
2022/10/01 07:54:01;;;;;;;17.83;5.50;;;13.00;99.90;;;;;;5070751;28;20040;-59
2022/10/01 07:56:27;;;;;;;22.55;6.00;;;13.10;99.90;;;;;;5072433;28;20037;-59
2022/10/01 07:58:57;;;;;;;17.48;5.05;;;13.10;99.90;;;;;;5069653;28;20087;-59
2022/10/01 08:01:23;;;;;;;17.08;5.22;;;13.70;99.90;;;;;;5070601;28;20061;-59
2022/10/01 08:03:50;;;;;;;15.20;5.10;;;13.70;99.90;;;;;;5071918;28;20083;-58
2022/10/01 08:06:17;;;;;;;15.07;4.45;;;13.60;99.90;;;;;;5077793;28;20049;-58
2022/10/01 08:08:43;;;;;;;22.33;4.30;;;13.40;99.90;;;;;;5081350;28;20046;-59
2022/10/01 08:11:12;;;;;;;17.45;4.10;;;13.50;99.90;;;;;;5079410;28;20036;-58
2022/10/01 08:13:38;;;;;;;21.52;4.38;;;13.60;99.90;;;;;;5081113;28;20088;-58
2022/10/01 08:16:06;;;;;;;17.23;3.28;;;13.60;99.90;;;;;;5080332;28;20068;-58
2022/10/01 08:18:33;;;;;;;15.60;3.47;;;13.90;99.90;;;;;;5080784;28;20543;-59
2022/10/01 08:21:00;;;;;;;15.48;3.00;;;13.70;99.90;;;;;;5081070;28;20068;-58
2022/10/01 08:23:27;;;;;;;16.40;3.00;;;13.80;99.90;;;;;;5080200;28;20041;-58
2022/10/01 08:25:59;;;;;;;14.45;4.05;;;14.00;99.90;;;;;;5080740;28;20049;-57
2022/10/01 08:28:24;;;;;;;13.17;3.00;;;14.00;99.90;;;;;;5080651;28;20086;-58
2022/10/01 08:30:50;;;;;;;19.63;2.92;;;14.10;99.90;;;;;;5079725;28;20048;-58
2022/10/01 08:33:16;;;;;;;15.80;3.03;;;14.20;99.90;;;;;;5080663;28;20052;-57
2022/10/01 08:35:42;;;;;;;10.23;2.17;;;14.30;99.90;;;;;;5080603;28;20044;-59
2022/10/01 08:38:09;;;;;;;17.48;2.33;;;14.60;99.90;;;;;;5081209;28;20086;-57
2022/10/01 08:40:46;;;;;;;12.65;2.10;;;14.60;99.90;;;;;;5079576;28;20055;-58
2022/10/01 08:43:37;;;;;;;10.35;2.05;;;14.60;99.90;;;;;;5081187;28;20079;-58
2022/10/01 08:46:10;;;;;;;13.90;2.20;;;14.50;99.90;;;;;;5080316;28;20612;-58
2022/10/01 08:48:44;;;;;;;12.40;2.85;;;14.50;99.90;;;;;;5080462;28;20036;-58
2022/10/01 08:51:19;;;;;;;15.70;2.35;;;14.50;99.90;;;;;;5080749;28;20040;-59
2022/10/01 08:54:14;;;;;;;12.88;2.33;;;14.40;99.90;;;;;;5080036;28;20489;-61
2022/10/01 08:56:45;;;;;;;18.73;2.95;;;14.20;99.90;;;;;;5080383;28;20037;-62
2022/10/01 08:59:28;;;;;;;15.95;2.70;;;14.30;99.90;;;;;;5080025;28;20051;-64
2022/10/01 09:01:55;;;;;;;18.25;3.55;;;14.20;99.90;;;;;;5079678;28;20150;-64
2022/10/01 09:04:21;;;;;;;14.32;2.90;;;14.00;99.90;;;;;;5079015;28;20076;-63
2022/10/01 09:06:50;;;;;;;15.82;3.25;;;14.30;99.90;;;;;;5079808;28;20104;-62
2022/10/01 09:09:37;;;;;;;13.63;2.50;;;14.00;99.90;;;;;;5079494;28;20044;-61
2022/10/01 09:12:09;;;;;;;17.05;2.88;;;14.30;99.90;;;;;;5076157;28;20044;-61
2022/10/01 09:15:14;;;;;;;17.70;3.28;;;14.20;99.90;;;;;;5079097;28;20492;-59
2022/10/01 09:17:48;;;;;;;11.13;2.15;;;14.10;99.90;;;;;;5079569;28;20033;-61
2022/10/01 09:20:30;;;;;;;11.07;2.33;;;14.20;99.90;;;;;;5079101;28;20052;-59
2022/10/01 09:23:18;;;;;;;10.95;2.15;;;14.50;99.90;;;;;;5078825;28;20520;-59
2022/10/01 09:25:49;;;;;;;9.48;1.95;;;14.40;99.90;;;;;;5079846;28;20055;-59
2022/10/01 09:28:42;;;;;;;12.98;2.40;;;14.50;99.90;;;;;;5076767;28;20056;-59
2022/10/01 09:31:17;;;;;;;13.40;2.75;;;14.70;99.90;;;;;;5073082;28;20063;-59
2022/10/01 09:33:54;;;;;;;11.00;2.42;;;14.60;99.90;;;;;;5076079;28;20044;-57
2022/10/01 09:36:40;;;;;;;11.98;2.08;;;14.60;99.90;;;;;;5074860;28;20104;-58
2022/10/01 09:39:26;;;;;;;8.50;1.50;;;14.80;99.90;;;;;;5075693;28;20424;-58
2022/10/01 09:41:52;;;;;;;8.63;1.65;;;14.90;99.90;;;;;;5055472;28;20099;-59
2022/10/01 09:44:26;;;;;;;7.32;1.60;;;14.80;99.90;;;;;;5055196;28;20048;-59
2022/10/01 09:46:52;;;;;;;10.27;1.85;;;14.70;99.90;;;;;;5055871;28;20064;-64
2022/10/01 09:49:38;;;;;;;11.25;1.90;;;14.30;99.90;;;;;;5055295;28;20076;-63
2022/10/01 09:52:19;;;;;;;9.27;2.22;;;13.90;99.90;;;;;;5054219;28;20071;-64
2022/10/01 09:54:51;;;;;;;13.50;2.22;;;13.80;99.90;;;;;;5053940;28;20049;-64
2022/10/01 09:57:39;;;;;;;11.15;2.40;;;13.70;99.90;;;;;;5054873;28;20049;-63
2022/10/01 10:00:13;;;;;;;13.05;2.22;;;13.40;99.90;;;;;;5068810;28;20088;-62
2022/10/01 10:02:41;;;;;;;10.73;2.03;;;13.60;99.90;;;;;;5075085;28;20056;-61
2022/10/01 10:05:12;;;;;;;10.73;1.88;;;13.40;99.90;;;;;;5075444;28;20307;-59
2022/10/01 10:07:41;;;;;;;8.57;1.60;;;13.60;99.90;;;;;;5073660;28;20095;-59
2022/10/01 10:10:20;;;;;;;13.68;1.80;;;13.20;99.90;;;;;;5074456;28;20119;-60
2022/10/01 10:12:47;;;;;;;10.23;2.20;;;13.00;99.90;;;;;;5075626;28;20052;-63
2022/10/01 10:15:20;;;;;;;10.43;2.50;;;12.70;99.90;;;;;;5073811;28;20052;-67
2022/10/01 10:17:50;;;;;;;9.40;1.55;;;12.40;99.90;;;;;;5075141;28;20043;-65
2022/10/01 10:20:42;;;;;;;10.38;1.50;;;11.90;99.90;;;;;;5074822;28;20043;-63
2022/10/01 10:23:16;;;;;;;8.88;2.70;;;11.30;99.90;;;;;;5074712;28;20055;-65
2022/10/01 10:25:42;;;;;;;8.48;1.80;;;11.30;99.90;;;;;;5074169;28;20040;-65
2022/10/01 10:28:22;;;;;;;9.38;1.80;;;12.30;99.90;;;;;;5073062;28;20053;-65
2022/10/01 10:30:54;;;;;;;11.05;1.85;;;12.50;99.90;;;;;;5075090;28;20062;-65
2022/10/01 10:33:22;;;;;;;6.78;1.60;;;12.10;99.90;;;;;;5075477;28;20064;-64
2022/10/01 10:36:01;;;;;;;8.60;1.50;;;12.50;99.90;;;;;;5078746;28;20055;-65
2022/10/01 10:38:31;;;;;;;7.85;1.60;;;12.20;99.90;;;;;;5079396;28;20055;-63
2022/10/01 10:40:57;;;;;;;9.07;1.48;;;12.10;99.90;;;;;;5078165;28;20066;-62
2022/10/01 10:43:28;;;;;;;6.65;1.40;;;11.10;99.90;;;;;;5079010;28;20167;-62
2022/10/01 10:45:55;;;;;;;10.65;1.70;;;12.30;99.90;;;;;;5079140;28;20486;-61
2022/10/01 10:48:29;;;;;;;8.95;2.15;;;12.70;99.90;;;;;;5078979;28;20052;-60
2022/10/01 10:51:00;;;;;;;9.23;1.88;;;11.90;99.90;;;;;;5079213;28;20063;-62
2022/10/01 10:53:28;;;;;;;11.27;2.03;;;12.90;99.90;;;;;;5060273;28;20104;-64
2022/10/01 10:55:59;;;;;;;10.07;2.08;;;11.50;99.90;;;;;;5079008;28;20053;-65
2022/10/01 10:58:28;;;;;;;7.53;1.90;;;11.80;99.90;;;;;;5078826;28;20083;-64
2022/10/01 11:01:03;;;;;;;10.05;2.10;;;12.80;99.90;;;;;;5059564;28;20053;-64
2022/10/01 11:03:31;;;;;;;8.10;2.20;;;12.60;99.90;;;;;;5058152;28;20052;-61
2022/10/01 11:06:17;;;;;;;13.25;2.10;;;13.00;99.90;;;;;;5058520;28;20067;-61
2022/10/01 11:08:45;;;;;;;8.55;1.80;;;13.20;99.90;;;;;;5067650;28;20524;-60
2022/10/01 11:11:19;;;;;;;8.30;1.90;;;11.80;99.90;;;;;;5079497;28;20040;-60
2022/10/01 11:14:02;;;;;;;11.60;2.35;;;13.40;99.90;;;;;;5082222;28;20048;-59
2022/10/01 11:16:45;;;;;;;9.43;1.90;;;13.30;99.90;;;;;;5082379;28;20626;-59
2022/10/01 11:19:18;;;;;;;8.65;2.00;;;12.10;99.90;;;;;;5081588;28;20108;-59
2022/10/01 11:22:04;;;;;;;8.60;1.90;;;13.00;99.90;;;;;;5082411;28;20446;-58
2022/10/01 11:24:36;;;;;;;9.65;1.80;;;12.60;99.90;;;;;;5081571;28;20045;-59
2022/10/01 11:27:15;;;;;;;11.05;2.00;;;12.60;99.90;;;;;;5082057;28;20048;-58
2022/10/01 11:29:46;;;;;;;8.43;1.85;;;13.00;99.90;;;;;;5082363;28;20056;-58
2022/10/01 11:32:33;;;;;;;6.53;1.63;;;13.80;99.90;;;;;;5081464;28;20044;-58
2022/10/01 11:35:14;;;;;;;10.13;1.92;;;14.10;99.90;;;;;;5081709;28;20494;-58
2022/10/01 11:37:48;;;;;;;11.35;2.40;;;13.30;99.90;;;;;;5080373;28;20102;-58
2022/10/01 11:40:27;;;;;;;11.95;2.30;;;14.10;99.90;;;;;;5080567;28;20048;-58
2022/10/01 11:43:00;;;;;;;11.00;3.53;;;13.40;99.90;;;;;;5079778;28;20062;-59
2022/10/01 11:45:40;;;;;;;10.68;2.00;;;14.40;99.90;;;;;;5079131;28;20075;-58
2022/10/01 11:48:13;;;;;;;13.40;2.00;;;13.80;99.90;;;;;;5079358;28;20036;-59
2022/10/01 11:50:47;;;;;;;12.95;2.53;;;14.40;99.90;;;;;;5078571;28;20116;-58
2022/10/01 11:53:29;;;;;;;12.10;2.08;;;13.70;99.90;;;;;;5078586;28;20040;-59
2022/10/01 11:59:21;;;;;;;16.67;2.40;;;14.70;99.90;;;;;;5078016;28;20071;-58
2022/10/01 12:02:01;;;;;;;11.85;2.22;;;14.30;99.90;;;;;;5078316;28;20111;-58
2022/10/01 12:04:33;;;;;;;12.23;2.13;;;14.70;99.90;;;;;;5078740;28;20077;-58
2022/10/01 12:07:03;;;;;;;14.95;2.17;;;14.50;99.90;;;;;;5077143;28;20067;-58
2022/10/01 12:09:42;;;;;;;12.73;2.40;;;14.50;99.90;;;;;;5076199;28;20052;-59
2022/10/01 12:12:14;;;;;;;11.77;2.35;;;14.40;99.90;;;;;;5071344;28;20033;-57
2022/10/01 12:14:43;;;;;;;;;;;14.90;99.90;;;;;;5070188;28;20428;-58
2022/10/01 12:17:16;;;;;;;13.65;1.92;;;15.10;99.90;;;;;;5069553;28;19920;-58
2022/10/01 12:19:48;;;;;;;10.32;1.60;;;15.40;99.90;;;;;;5069945;28;20075;-58
2022/10/01 12:22:25;;;;;;;12.90;2.45;;;15.10;99.90;;;;;;5069389;28;20515;-58
2022/10/01 12:24:52;;;;;;;11.10;2.00;;;15.20;99.90;;;;;;5068925;28;20041;-58
2022/10/01 12:27:46;;;;;;;14.90;2.65;;;15.10;99.90;;;;;;5068975;28;20048;-58
2022/10/01 12:30:19;;;;;;;12.18;1.92;;;15.30;99.90;;;;;;5070188;28;20083;-57
2022/10/01 12:33:19;;;;;;;11.52;1.60;;;15.40;99.90;;;;;;5068503;28;20041;-58
2022/10/01 12:36:02;;;;;;;11.50;2.08;;;15.30;99.90;;;;;;5055842;28;20045;-58
2022/10/01 12:38:34;;;;;;;12.00;1.63;;;15.30;99.90;;;;;;5080832;28;20083;-59
2022/10/01 12:41:26;;;;;;;9.80;1.70;;;15.50;99.90;;;;;;5079776;28;20037;-59
2022/10/01 12:44:06;;;;;;;7.63;2.00;;;15.50;99.90;;;;;;5080536;28;20512;-59
2022/10/01 12:46:50;;;;;;;8.40;1.25;;;14.70;99.90;;;;;;5080805;28;20088;-59
2022/10/01 12:49:27;;;;;;;10.05;1.67;;;14.40;99.90;;;;;;5078400;28;20048;-59
2022/10/01 12:52:18;;;;;;;10.18;1.40;;;14.30;99.90;;;;;;5080364;28;20041;-58
2022/10/01 12:55:05;;;;;;;9.13;1.75;;;13.90;99.90;;;;;;5058264;28;20057;-58
2022/10/01 12:58:02;;;;;;;9.23;1.42;;;13.90;99.90;;;;;;5075838;28;20142;-59
2022/10/01 13:00:34;;;;;;;9.77;1.40;;;13.80;99.90;;;;;;5059659;28;20049;-59
2022/10/01 13:03:21;;;;;;;13.65;1.70;;;13.50;99.90;;;;;;5055901;28;20049;-59